2011 Tropical Cyclone VINCE (2011009S15113)


IBTrACS version v04r00. Visit IBTrACS website for data access.
Please direct all questions to the IBTrACS Q and A forum

Storm track - Intensity - Wind Radii - Intensity Data - Source Data - All data

Summary Information

Satellite image near maximum intensity
Storm ID 2011009S15113
Start Jan 9 06Z
Max Intensity 45 kt (Jan 13 00Z), 986 mb (Jan 12 23Z)
End Jan 16 12Z
ATCF IDs ,SH062011
Track status Best track data.

Storm track plot

Map of storm track

Intensity plots

Map of storm track

Radial wind information

Map of storm track

Position and Intensity Table

BASIN ISO_TIME_________ NATURE LAT LON WMO WIND WMO PRES USA WIND USA PRES BOM WIND BOM PRES
degrees north degrees east kts mb kts mb kts mb
SI 2011-01-09 06:00:00 NR -15.10 112.80 25 996 25 996
SI 09:00:00 NR -15.12 112.85 25 996
SI 12:00:00 NR -15.15 112.90 25 996 25 996
SI 15:00:00 NR -15.18 112.94 25 996
SI 18:00:00 NR -15.20 112.99 25 996 25 996
SI 18:37:00 NR -15.20 113.00 25 996
SI 21:00:00 NR -15.20 112.74 25 996
SI 22:30:00 NR -15.20 112.50 25 996
SI 2011-01-10 00:00:00 NR -15.20 112.34 25 996 25 996
SI 03:00:00 NR -15.20 112.01 25 995
SI 06:00:00 NR -15.18 111.58 25 995 20 1007 25 995
SI 06:43:00 NR -15.18 111.43 20 1007 25 995
SI 09:00:00 NR -15.17 111.05 20 1007 25 995
SI 11:03:00 NR -15.19 110.67 20 1007 25 995
SI 12:00:00 NR -15.20 110.51 25 995 20 1007 25 995
SI 15:00:00 NR -15.23 109.98 22 1003 27 994
SI 18:00:00 NR -15.23 109.47 30 994 25 999 30 994
SI 21:00:00 NR -15.24 108.90 25 1001 30 993
SI 22:13:00 NR -15.18 108.72 25 1002 30 993
SI 23:30:00 NR -15.06 108.58 25 1003 30 993
SI 2011-01-11 00:00:00 NR -15.05 108.53 30 993 25 1004 30 993
SI 03:00:00 NR -14.99 108.23 27 1002 30 991
SI 06:00:00 NR -14.95 108.00 30 990 30 1000 30 990
SI 08:32:00 NR -14.94 107.84 30 1000 30 990
SI 09:00:00 NR -14.95 107.82 30 1000 30 990
SI 10:46:00 NR -14.95 107.76 30 1000 30 990
SI 12:00:00 NR -14.91 107.71 30 990 30 1000 30 990
SI 12:04:00 NR -14.90 107.70 30 1000 30 990
SI 13:31:00 NR -14.85 107.62 30 1000 31 990
SI 15:00:00 NR -14.86 107.48 30 1000 32 990
SI 18:00:00 NR -14.95 107.25 35 990 30 1000 35 990
SI 18:17:00 NR -14.95 107.25 30 1000 35 990
SI 21:00:00 NR -14.98 107.31 30 1000 35 990
SI 23:15:00 NR -15.00 107.40 30 1000 35 990
SI 2011-01-12 00:00:00 NR -15.00 107.41 35 990 30 1000 35 990
SI 03:00:00 NR -14.99 107.47 32 998 35 990
SI 06:00:00 TS -15.00 107.55 35 990 35 996 35 990
SI 06:31:00 TS -15.01 107.56 35 995 35 990
SI 09:00:00 TS -15.14 107.76 37 994 35 990
SI 10:28:00 TS -15.25 107.88 38 993 35 990
SI 12:00:00 TS -15.35 107.90 35 990 40 993 35 990
SI 13:19:00 TS -15.44 107.91 40 993 35 990
SI 15:00:00 TS -15.58 107.87 40 993 35 990
SI 17:27:00 TS -15.73 107.84 40 993 35 990
SI 18:00:00 TS -15.75 107.87 35 990 40 993 35 990
SI 21:00:00 TS -15.81 107.98 42 991 37 988
SI 21:50:00 TS -15.82 108.01 43 990 38 987
SI 23:03:00 TS -15.84 108.05 44 989 39 986
SI 2011-01-13 00:00:00 TS -15.85 108.10 40 986 45 989 40 986
SI 00:31:00 TS -15.86 108.13 45 989 39 986
SI 03:00:00 TS -15.92 108.52 45 989 37 989
SI 06:00:00 TS -15.98 109.23 35 993 45 989 35 993
SI 09:00:00 TS -15.96 109.86 45 989 32 993
SI 10:25:00 TS -15.92 110.14 45 989 31 993
SI 12:00:00 TS -15.85 110.44 30 994 45 989 30 994
SI 13:07:00 TS -15.86 110.61 45 989 30 994
SI 15:00:00 TS -15.93 110.95 45 989 30 995
SI 16:32:00 TS -16.02 111.27 45 989 30 995
SI 18:00:00 TS -16.10 111.59 30 996 45 989 30 996
SI 18:05:00 TS -16.10 111.61 45 989 30 996
SI 21:00:00 TS -16.22 112.09 45 989 30 996
SI 22:50:00 TS -16.24 112.35 45 989 30 996
SI 2011-01-14 00:00:00 TS -16.25 112.53 30 997 45 989 30 997
SI 00:19:00 TS -16.25 112.58 44 989 30 997
SI 03:00:00 TS -16.25 113.06 42 991 30 997
SI 06:00:00 TS -16.25 113.62 30 997 40 993 30 997
SI 06:18:00 TS -16.25 113.67 39 993 30 997
SI 07:25:00 TS -16.25 113.90 38 993 30 997
SI 09:00:00 TS -16.24 114.12 37 994 30 997
SI 10:12:00 TS -16.21 114.24 36 995 30 997
SI 12:00:00 TS -16.15 114.37 30 997 35 996 30 997
SI 15:00:00 TS -16.02 114.56 35 996 30 997
SI 15:37:00 TS -16.00 114.58 35 996 30 997
SI 18:00:00 TS -15.91 114.62 30 997 35 996 30 997
SI 21:00:00 TS -15.83 114.71 35 996 30 997
SI 22:38:00 TS -15.77 114.66 35 996 30 997
SI 2011-01-15 00:00:00 TS -15.70 114.51 30 997 35 996 30 997
SI 00:07:00 TS -15.70 114.50 35 996 30 997
SI 03:00:00 TS -15.63 114.33 35 996 30 997
SI 05:30:00 TS -15.65 114.26 35 996 30 997
SI 06:00:00 TS -15.66 114.25 30 997 35 996 30 997
SI 09:00:00 TS -15.71 114.15 35 996 30 997
SI 12:00:00 TS -15.79 114.03 30 997 35 996 30 997
SI 14:41:00 TS -15.89 113.91 32 997 30 997
SI 15:00:00 TS -15.88 113.88 32 998 30 997
SI 17:53:00 TS -15.80 113.50 30 999 30 997
SI 18:00:00 TS -15.81 113.50 30 997 30 1000 30 997
SI 21:00:00 TS -15.97 113.43 30 1000 27 997
SI 22:25:00 TS -16.02 113.36 30 1000 26 997
SI 2011-01-16 00:00:00 TS -16.07 113.21 25 997 30 1000 25 997
SI 03:00:00 TS -16.17 112.90 30 1000 25 997
SI 06:00:00 TS -16.25 112.61 25 997 30 1000 25 997
SI 06:06:00 TS -16.25 112.60 29 1000 24 997
SI 09:00:00 TS -16.26 112.38 27 1002 22 997
SI 10:57:00 TS -16.19 112.26 25 1003 20 997
SI 12:00:00 TS -16.08 112.19 20 997 25 1004 20 997
SI 12:31:00 NR -15.80 112.20

Source Information

Agency Information
USA bsh062011.dat
TOKYO
CMA
HKO
NEWDELHI
REUNION
BOM IDCKMSTM0S.csv:Line=24173:Vince
NADI
WELLINGTON
DS824
TD9636
TD9635
NEUMANN
MLC

All available IBTrACS Data

SEASON BASIN SUBBASIN ISO_TIME_________ NATURE LAT LON WMO WIND WMO PRES WMO AGENCY DIST2LAND LANDFALL IFLAG USA AGENCY USA ATCF_ID USA LAT USA LON USA STATUS USA WIND USA PRES USA SSHS USA R34 USA POCI USA ROCI USA RMW USA EYE BOM LAT BOM LON BOM TYPE BOM WIND BOM PRES BOM TNUM BOM CI BOM RMW BOM R34 BOM ROCI BOM POCI BOM POS_METHOD BOM PRES_METHOD BOM GUST BOM GUST_PER STORM SPEED STORM DIR
Year degrees north degrees east kts mb km km degrees north degrees east kts mb 1 nmile mb nmile nmile nmile degrees north degrees east kts mb 1 1 nmile nmile nmile mb kts second kts degrees
2011 SI WA 2011-01-09 06:00:00 NR -15.10 112.80 25 996 bom 732 732 ______O_______ -1 -15.10 112.80 20 25 996 1.50 1.50 119 1002 3 5 45 45 1 114
2011 SI WA 09:00:00 NR -15.12 112.85 729 729 ______P_______ -1 -15.12 112.85 20 25 996 119 1002 1 117
2011 SI WA 12:00:00 NR -15.15 112.90 25 996 bom 729 725 ______O_______ -1 -15.15 112.90 20 25 996 1.50 1.50 119 1002 3 5 45 45 1 125
2011 SI WA 15:00:00 NR -15.18 112.94 725 719 ______P_______ -1 -15.18 112.94 20 25 996 119 1002 1 119
2011 SI WA 18:00:00 NR -15.20 112.99 25 996 bom 719 719 ______O_______ -1 -15.20 112.99 20 25 996 2.00 2.00 119 1002 3 5 45 45 1 109
2011 SI WA 18:37:00 NR -15.20 113.00 bom 719 719 ______I_______ -1 -15.20 113.00 20 25 996 119 1002 3 5 5 270
2011 SI WA 21:00:00 NR -15.20 112.74 737 737 ______P_______ -1 -15.20 112.74 20 25 996 119 1002 7 270
2011 SI WA 22:30:00 NR -15.20 112.50 bom 748 748 ______I_______ -1 -15.20 112.50 20 25 996 119 1002 3 5 8 270
2011 SI WA 2011-01-10 00:00:00 NR -15.20 112.34 25 996 bom 756 756 ______O_______ -1 -15.20 112.34 20 25 996 1.50 2.00 119 1002 3 5 45 45 6 270
2011 SI WA 03:00:00 NR -15.20 112.01 762 761 ______P_______ -1 -15.20 112.01 20 25 995 149 1001 7 272
2011 SI WA 06:00:00 NR -15.18 111.58 25 995 bom 761 761 O_____O_______ jtwc_sh SH062011 -15.10 111.20 DB 20 1007 -3 -15.20 111.68 20 25 995 2.00 2.00 179 1000 3 5 45 45 9 272
2011 SI WA 06:43:00 NR -15.18 111.43 bom 762 762 P_____I_______ SH062011 -15.13 111.09 DB 20 1007 -3 -15.20 111.60 20 25 995 179 1000 3 5 10 271
2011 SI WA 09:00:00 NR -15.17 111.05 765 765 P_____P_______ SH062011 -15.22 110.75 DB 20 1007 -3 -15.14 111.27 20 25 995 179 1000 10 269
2011 SI WA 11:03:00 NR -15.19 110.67 bom 769 769 P_____I_______ SH062011 -15.28 110.44 DB 20 1007 -3 -15.10 110.90 20 25 995 179 1000 3 5 11 267
2011 SI WA 12:00:00 NR -15.20 110.51 25 995 bom 772 772 O_____O_______ jtwc_sh SH062011 -15.30 110.30 DB 20 1007 -3 -15.11 110.71 20 25 995 2.00 2.00 179 1000 3 5 45 45 10 266
2011 SI WA 15:00:00 NR -15.23 109.98 783 783 P_____P_______ SH062011 -15.33 109.85 DB 22 1003 -3 -15.14 110.12 20 27 994 179 1000 10 269
2011 SI WA 18:00:00 NR -15.23 109.47 30 994 bom 794 794 O_____O_______ jtwc_sh SH062011 -15.30 109.40 DB 25 999 -3 1008 150 15 30 -15.16 109.53 20 30 994 2.50 2.50 179 1000 3 5 45 45 10 269
2011 SI WA 21:00:00 NR -15.24 108.90 808 808 P_____P_______ SH062011 -15.22 108.93 DB 25 1001 -3 1008 150 15 -15.27 108.88 20 30 993 179 1000 10 274
2011 SI WA 22:13:00 NR -15.18 108.72 bom 813 802 P_____I_______ SH062011 -15.17 108.74 DB 25 1002 -3 1008 150 15 -15.20 108.70 20 30 993 179 1000 3 5 9 301
2011 SI WA 23:30:00 NR -15.06 108.58 bom 805 805 P_____I_______ SH062011 -15.12 108.56 DB 25 1003 -3 1008 150 15 -15.00 108.60 20 30 993 179 1000 3 5 8 306
2011 SI WA 2011-01-11 00:00:00 NR -15.05 108.53 30 993 bom 798 798 O_____O_______ jtwc_sh SH062011 -15.10 108.50 DB 25 1004 -3 1008 150 15 30 -15.00 108.56 20 30 993 2.50 2.50 179 1000 3 5 45 45 6 281
2011 SI WA 03:00:00 NR -14.99 108.23 806 806 P_____P_______ SH062011 -14.98 108.15 DB 27 1002 -3 1006 155 30 -15.00 108.32 20 30 991 164 999 5 281
2011 SI WA 06:00:00 NR -14.95 108.00 30 990 bom 796 796 O_____O_______ jtwc_sh SH062011 -14.90 107.90 DB 30 1000 -3 1004 160 45 -15.00 108.09 20 30 990 2.00 2.50 150 998 3 5 45 45 4 278
2011 SI WA 08:32:00 NR -14.94 107.84 bom 797 797 P_____I_______ SH062011 -14.88 107.78 DB 30 1000 -3 1004 160 45 -15.00 107.90 20 30 990 136 998 3 5 3 271
2011 SI WA 09:00:00 NR -14.95 107.82 797 797 P_____P_______ SH062011 -14.88 107.77 DB 30 1000 -3 1004 160 45 -15.01 107.88 20 30 990 134 998 2 267
2011 SI WA 10:46:00 NR -14.95 107.76 bom 797 797 P_____I_______ SH062011 -14.89 107.73 DB 30 1000 -3 1004 160 45 -15.00 107.80 20 30 990 125 998 3 5 2 290
2011 SI WA 12:00:00 NR -14.91 107.71 30 990 bom 798 798 O_____O_______ jtwc_sh SH062011 -14.90 107.70 DB 30 1000 -3 1004 160 45 -14.91 107.71 20 30 990 2.00 2.50 119 998 3 5 45 45 4 306
2011 SI WA 12:04:00 NR -14.90 107.70 bom 798 788 P_____I_______ SH062011 -14.90 107.70 DB 30 1000 -3 -14.90 107.70 20 30 990 119 998 3 5 4 306
2011 SI WA 13:31:00 NR -14.85 107.62 bom 788 788 P_____I_______ SH062011 -14.90 107.64 DB 30 1000 -3 -14.80 107.60 20 31 990 126 998 3 5 4 280
2011 SI WA 15:00:00 NR -14.86 107.48 801 801 P_____P_______ SH062011 -14.89 107.58 DB 30 1000 -3 -14.83 107.38 20 32 990 134 999 5 254
2011 SI WA 18:00:00 NR -14.95 107.25 35 990 bom 804 815 O_____O_______ jtwc_sh SH062011 -14.90 107.50 DB 30 1000 -3 -15.00 107.00 20 35 990 2.50 2.50 35 90 150 1000 3 5 49 49 4 248
2011 SI WA 18:17:00 NR -14.95 107.25 bom 816 815 P_____I_______ SH062011 -14.90 107.50 DB 30 1000 -3 -15.00 107.00 20 35 990 35 150 1000 3 5 1 117
2011 SI WA 21:00:00 NR -14.98 107.31 815 813 P_____P_______ SH062011 -14.95 107.48 DB 30 1000 -3 -15.00 107.15 20 35 990 35 150 1001 2 107
2011 SI WA 23:15:00 NR -15.00 107.40 bom 813 813 P_____I_______ SH062011 -14.99 107.49 DB 30 1000 -3 -15.00 107.30 20 35 990 35 150 1001 3 5 2 105
2011 SI WA 2011-01-12 00:00:00 NR -15.00 107.41 35 990 bom 813 812 O_____O_______ jtwc_sh SH062011 -15.00 107.50 DB 30 1000 -3 1004 160 45 -15.00 107.32 20 35 990 2.50 2.50 35 , ,90, 150 1002 3 5 49 49 1 88
2011 SI WA 03:00:00 NR -14.99 107.47 812 812 P_____P_______ SH062011 -14.98 107.54 DB 32 998 -3 1003 162 42 -15.00 107.41 20 35 990 35 , ,90, 164 1001 1 90
2011 SI WA 06:00:00 TS -15.00 107.55 35 990 bom 812 811 O_____O_______ jtwc_sh SH062011 -15.00 107.60 TC 35 996 0 1003 165 40 -15.00 107.49 20 35 990 2.50 2.50 35 , ,90, 179 1000 3 5 49 49 1 101
2011 SI WA 06:31:00 TS -15.01 107.56 bom 811 811 P_____I_______ SH062011 -15.01 107.62 TC 35 995 0 1003 165 40 -15.00 107.50 20 35 990 35 176 1000 3 5 5 124
2011 SI WA 09:00:00 TS -15.14 107.76 820 820 P_____P_______ SH062011 -15.12 107.70 TC 37 994 0 1003 165 40 -15.16 107.82 20 35 990 35 164 1000 6 129
2011 SI WA 10:28:00 TS -15.25 107.88 bom 841 841 P_____I_______ SH062011 -15.20 107.75 TC 38 993 0 1003 165 40 -15.30 108.00 20 35 990 35 157 1000 3 5 5 149
2011 SI WA 12:00:00 TS -15.35 107.90 35 990 bom 852 852 O_____O_______ jtwc_sh SH062011 -15.30 107.80 TS 40 993 0 50,50,50,50 1003 165 40 -15.41 108.00 20 35 990 2.00 2.50 35 90, , ,90 150 1000 3 5 49 49 4 166
2011 SI WA 13:19:00 TS -15.44 107.91 bom 852 852 P_____I_______ SH062011 -15.39 107.82 TS 40 993 0 51,50,50,51 1003 165 40 -15.50 108.00 20 35 990 35 90, , ,90 163 1000 3 5 45 45 5 189
2011 SI WA 15:00:00 TS -15.58 107.87 875 875 P_____P_______ SH062011 -15.51 107.84 TS 40 993 0 52,50,50,52 1003 165 40 -15.65 107.90 20 35 990 35 90, , ,90 180 1000 4 193
2011 SI WA 17:27:00 TS -15.73 107.84 bom 887 886 P_____I_______ SH062011 -15.67 107.88 TS 40 993 0 54,50,50,54 1003 165 40 -15.80 107.80 20 35 990 35 90, , ,90 204 1000 3 5 3 188
2011 SI WA 18:00:00 TS -15.75 107.87 35 990 bom 886 896 O_____O_______ jtwc_sh SH062011 -15.70 107.90 TS 40 993 0 55,50,50,55 1003 165 40 -15.80 107.83 30 35 990 3.00 3.00 35 90, , ,90 210 1000 3 5 49 49 3 119
2011 SI WA 21:00:00 TS -15.81 107.98 896 896 P_____P_______ SH062011 -15.81 107.98 TS 42 991 0 55,50,50,55 1002 167 40 -15.80 107.98 30 37 988 32 74, , ,90 210 1000 2 117
2011 SI WA 21:50:00 TS -15.82 108.01 bom 896 896 P_____I_______ SH062011 -15.84 108.02 TS 43 990 0 55,50,50,55 1002 168 40 -15.80 108.00 30 38 987 31 70, , ,90 210 1000 3 5 2 112
2011 SI WA 23:03:00 TS -15.84 108.05 bom 896 896 P_____I_______ SH062011 -15.87 108.10 TS 44 989 0 55,50,50,55 1002 169 40 -15.80 108.00 30 39 986 30 63, , ,90 210 1000 3 5 3 108
2011 SI WA 2011-01-13 00:00:00 TS -15.85 108.10 40 986 bom 896 896 O_____O_______ jtwc_sh SH062011 -15.90 108.20 TS 45 989 0 55,50,50,55 1002 170 40 -15.80 108.00 30 40 986 3.00 3.00 30 59,59,59,90 210 1000 3 5 55 55 3 108
2011 SI WA 00:31:00 TS -15.86 108.13 bom 907 885 P_____I_______ SH062011 -15.92 108.27 TS 45 989 0 54,49,49,54 1002 169 40 -15.80 108.00 30 39 986 30 59,59,59,90 204 1000 3 5 8 101
2011 SI WA 03:00:00 TS -15.92 108.52 885 830 P_____P_______ SH062011 -16.03 108.68 TS 45 989 0 52,47,47,52 1002 165 40 -15.82 108.35 30 37 989 30 59,59,59,90 180 1001 12 96
2011 SI WA 06:00:00 TS -15.98 109.23 35 993 bom 830 794 O_____O_______ jtwc_sh SH062011 -16.10 109.30 TS 45 989 0 50,45,45,50 1002 160 40 -15.86 109.16 30 35 993 2.50 3.00 30 59,59,59,90 150 1002 3 5 49 49 13 92
2011 SI WA 09:00:00 TS -15.96 109.86 788 782 P_____P_______ SH062011 -16.00 109.90 TS 45 989 0 45,42,42,47 1001 155 40 -15.93 109.82 30 32 993 164 1001 12 86
2011 SI WA 10:25:00 TS -15.92 110.14 bom 786 770 P_____I_______ SH062011 -15.94 110.19 TS 45 989 0 42,41,41,46 1000 152 40 -15.90 110.10 30 31 993 171 1000 3 5 11 79
2011 SI WA 12:00:00 TS -15.85 110.44 30 994 bom 780 760 O_____O_______ jtwc_sh SH062011 -15.90 110.50 TS 45 989 0 40,40,40,45 1000 150 40 -15.80 110.38 30 30 994 2.50 3.00 179 1000 3 5 45 45 10 82
2011 SI WA 13:07:00 TS -15.86 110.61 bom 760 746 P_____I_______ SH062011 -15.92 110.71 TS 45 989 0 40,40,40,45 1000 150 40 -15.80 110.50 30 30 994 179 1000 3 5 10 100
2011 SI WA 15:00:00 TS -15.93 110.95 746 718 P_____P_______ SH062011 -15.98 111.06 TS 45 989 0 40,40,40,45 1000 150 40 -15.89 110.83 30 30 995 179 1001 12 104
2011 SI WA 16:32:00 TS -16.02 111.27 bom 718 696 P_____I_______ SH062011 -16.04 111.34 TS 45 989 0 40,40,40,45 1000 150 40 -16.00 111.20 30 30 995 179 1001 3 5 13 105
2011 SI WA 18:00:00 TS -16.10 111.59 30 996 bom 696 696 O_____O_______ jtwc_sh SH062011 -16.10 111.60 TS 45 989 0 40,40,40,45 1000 150 40 -16.09 111.58 20 30 996 2.50 2.50 179 1002 3 5 45 45 13 104
2011 SI WA 18:05:00 TS -16.10 111.61 bom 696 668 P_____I_______ SH062011 -16.10 111.61 TS 45 989 0 40,40,40,45 1000 149 40 -16.10 111.60 20 30 996 179 1002 3 5 10 105
2011 SI WA 21:00:00 TS -16.22 112.09 668 659 P_____P_______ SH062011 -16.16 112.10 TS 45 989 0 40,40,40,45 1000 145 40 -16.28 112.08 20 30 996 209 1003 9 101
2011 SI WA 22:50:00 TS -16.24 112.35 bom 659 654 P_____I_______ SH062011 -16.19 112.40 TS 45 989 0 40,40,40,45 1000 141 40 -16.30 112.30 20 30 996 227 1003 3 5 8 93
2011 SI WA 2011-01-14 00:00:00 TS -16.25 112.53 30 997 bom 654 639 O_____O_______ jtwc_sh SH062011 -16.20 112.60 TS 45 989 0 40,40,40,45 1000 140 40 -16.30 112.46 20 30 997 2.50 2.50 239 1004 3 5 45 45 9 92
2011 SI WA 00:19:00 TS -16.25 112.58 bom 639 615 P_____I_______ SH062011 -16.20 112.66 TS 44 989 0 40,40,40,45 1000 140 40 -16.30 112.50 20 30 997 235 1003 3 5 10 90
2011 SI WA 03:00:00 TS -16.25 113.06 609 590 P_____P_______ SH062011 -16.21 113.18 TS 42 991 0 40,40,40,45 1000 140 40 -16.30 112.94 20 30 997 209 1003 11 90
2011 SI WA 06:00:00 TS -16.25 113.62 30 997 bom 590 581 O_____O_______ jtwc_sh SH062011 -16.20 113.70 TS 40 993 0 40,40,40,45 1000 140 40 -16.30 113.54 20 30 997 2.00 2.50 179 1002 3 5 45 45 11 90
2011 SI WA 06:18:00 TS -16.25 113.67 bom 575 564 P_____I_______ SH062011 -16.20 113.74 TS 39 993 0 40,40,40,45 1000 140 40 -16.30 113.60 20 30 997 177 1002 3 5 11 91
2011 SI WA 07:25:00 TS -16.25 113.90 bom 564 559 P_____I_______ SH062011 -16.21 113.89 TS 38 993 0 40,40,40,45 1000 140 40 -16.30 113.90 20 30 997 172 1002 3 5 10 88
2011 SI WA 09:00:00 TS -16.24 114.12 563 558 P_____P_______ SH062011 -16.21 114.07 TS 37 994 0 40,40,40,45 1000 140 40 -16.26 114.18 20 30 997 164 1002 7 82
2011 SI WA 10:12:00 TS -16.21 114.24 bom 558 548 P_____I_______ SH062011 -16.22 114.18 TS 36 995 0 40,40,40,45 1000 140 40 -16.20 114.30 20 30 997 158 1002 3 5 5 70
2011 SI WA 12:00:00 TS -16.15 114.37 30 997 bom 558 548 O_____O_______ jtwc_sh SH062011 -16.20 114.30 TS 35 996 0 40,40,40,45 1000 140 40 -16.10 114.43 20 30 997 2.50 2.50 150 1002 3 5 45 45 4 59
2011 SI WA 15:00:00 TS -16.02 114.56 560 560 P_____P_______ SH062011 -16.11 114.45 TS 35 996 0 40,40,40,45 1000 140 40 -15.93 114.67 20 30 997 164 1002 4 54
2011 SI WA 15:37:00 TS -16.00 114.58 bom 560 560 P_____I_______ SH062011 -16.09 114.46 TS 35 996 0 40,40,40,45 1000 140 40 -15.90 114.70 20 30 997 167 1002 3 5 2 26
2011 SI WA 18:00:00 TS -15.91 114.62 30 997 bom 570 566 O_____O_______ jtwc_sh SH062011 -16.00 114.50 TS 35 996 0 40,40,40,45 1000 140 40 -15.83 114.73 20 30 997 2.50 2.50 179 1002 3 5 45 45 2 37
2011 SI WA 21:00:00 TS -15.83 114.71 577 577 P_____P_______ SH062011 -15.89 114.53 TS 35 996 0 40,40,40,45 1000 145 40 -15.77 114.90 20 30 997 149 1002 2 18
2011 SI WA 22:38:00 TS -15.77 114.66 bom 577 577 P_____I_______ SH062011 -15.84 114.52 TS 35 996 0 40,40,40,45 1000 147 40 -15.70 114.80 20 30 997 132 1002 3 5 5 302
2011 SI WA 2011-01-15 00:00:00 TS -15.70 114.51 30 997 bom 595 595 O_____O_______ jtwc_sh SH062011 -15.80 114.50 TS 35 996 0 40,40,40,45 1000 150 40 -15.61 114.52 20 30 997 2.50 2.50 119 1002 3 5 45 45 7 295
2011 SI WA 00:07:00 TS -15.70 114.50 bom 595 595 P_____I_______ SH062011 -15.80 114.50 TS 35 996 0 40,40,40,45 1000 150 40 -15.60 114.50 20 30 997 120 1002 3 5 4 294
2011 SI WA 03:00:00 TS -15.63 114.33 614 604 P_____P_______ SH062011 -15.73 114.42 TS 35 996 0 40,40,40,45 1000 150 40 -15.52 114.24 20 30 997 149 1002 3 281
2011 SI WA 05:30:00 TS -15.65 114.26 bom 604 604 P_____I_______ SH062011 -15.70 114.32 TS 35 996 0 40,40,40,45 1000 150 40 -15.60 114.20 20 30 997 174 1002 3 5 2 250
2011 SI WA 06:00:00 TS -15.66 114.25 30 997 bom 608 608 O_____O_______ jtwc_sh SH062011 -15.70 114.30 TS 35 996 0 40,40,40,45 1000 150 40 -15.62 114.19 20 30 997 2.50 2.50 179 1002 3 5 45 45 2 241
2011 SI WA 09:00:00 TS -15.71 114.15 613 603 P_____P_______ SH062011 -15.68 114.16 TS 35 996 0 40,40,40,45 1000 150 40 -15.75 114.13 20 30 997 179 1002 2 238
2011 SI WA 12:00:00 TS -15.79 114.03 30 997 bom 608 598 O_____O_______ jtwc_sh SH062011 -15.70 114.00 TS 35 996 0 40,40,40,45 1000 150 40 -15.88 114.06 20 30 997 2.00 2.50 179 1002 3 5 45 45 3 232
2011 SI WA 14:41:00 TS -15.89 113.91 bom 603 603 P_____I_______ SH062011 -15.77 113.83 TS 32 997 -1 1000 150 40 -16.00 114.00 20 30 997 205 1002 3 5 3 239
2011 SI WA 15:00:00 TS -15.88 113.88 603 603 P_____P_______ SH062011 -15.78 113.81 TS 32 998 -1 1000 150 40 -15.97 113.94 20 30 997 209 1002 8 283
2011 SI WA 17:53:00 TS -15.80 113.50 bom 634 708 P_____I_______ SH062011 -15.90 113.61 TS 30 999 -1 1000 150 40 -15.70 113.40 20 30 997 237 1002 3 5 7 281
2011 SI WA 18:00:00 TS -15.81 113.50 30 997 bom 634 621 O_____O_______ jtwc_sh SH062011 -15.90 113.60 TD 30 1000 -1 1001 150 40 -15.71 113.40 20 30 997 2.00 2.00 239 1002 3 5 45 45 4 201
2011 SI WA 21:00:00 TS -15.97 113.43 621 621 P_____P_______ SH062011 -16.00 113.41 TD 30 1000 -1 1001 145 40 -15.93 113.45 20 27 997 209 1002 4 213
2011 SI WA 22:25:00 TS -16.02 113.36 bom 621 617 P_____I_______ SH062011 -16.05 113.31 TD 30 1000 -1 1001 142 40 -16.00 113.40 20 26 997 194 1002 3 5 5 245
2011 SI WA 2011-01-16 00:00:00 TS -16.07 113.21 25 997 bom 623 623 O_____O_______ jtwc_sh SH062011 -16.10 113.20 TD 30 1000 -1 1001 140 40 -16.04 113.21 20 25 997 1.00 1.50 179 1002 3 5 45 45 6 251
2011 SI WA 03:00:00 TS -16.17 112.90 630 630 P_____P_______ SH062011 -16.20 112.96 TD 30 1000 -1 -16.14 112.84 20 25 997 119 1000 6 253
2011 SI WA 06:00:00 TS -16.25 112.61 25 997 bom 648 648 O_____O_______ jtwc_sh SH062011 -16.30 112.70 TD 30 1000 -1 -16.20 112.51 20 25 997 59 998 3 5 6 255
2011 SI WA 06:06:00 TS -16.25 112.60 bom 639 639 P_____I_______ SH062011 -16.30 112.69 TD 29 1000 -1 -16.20 112.50 20 24 997 3 5 4 268
2011 SI WA 09:00:00 TS -16.26 112.38 648 648 P_____P_______ SH062011 -16.40 112.41 TD 27 1002 -1 -16.15 112.36 20 22 997 4 282
2011 SI WA 10:57:00 TS -16.19 112.26 bom 662 662 P_____I_______ SH062011 -16.47 112.21 TD 25 1003 -1 -16.00 112.30 20 20 997 3 5 5 313
2011 SI WA 12:00:00 TS -16.08 112.19 20 997 bom 675 675 O_____O_______ jtwc_sh SH062011 -16.50 112.10 TD 25 1004 -1 -15.87 112.23 20 20 997 3 5 45 45 15 352
2011 SI WA 12:31:00 NR -15.80 112.20 bom 708 ______O_______ SH062011 TD -1 -15.80 112.20 20 3 5 33 0